createdAt,value
2024-04-24T04:02:14.522Z,12.87
2024-04-24T04:04:41.489Z,13.67
2024-04-24T04:07:08.318Z,13.03
2024-04-24T04:09:37.788Z,14.07
2024-04-24T04:23:25.895Z,14.20
2024-04-24T04:25:52.564Z,13.43
2024-04-24T04:28:20.498Z,14.27
2024-04-24T04:30:54.122Z,13.33
2024-04-24T04:33:23.709Z,14.60
2024-04-24T04:35:50.305Z,14.73
2024-04-24T04:38:22.107Z,14.20
2024-04-24T04:40:49.637Z,14.20
2024-04-24T04:43:19.034Z,14.73
2024-04-24T04:45:49.522Z,14.13
2024-04-24T04:48:17.882Z,15.33
2024-04-24T04:50:44.784Z,13.33
2024-04-24T04:53:11.357Z,14.40
2024-04-24T04:55:37.987Z,13.83
2024-04-24T04:58:04.763Z,14.27
2024-04-24T05:00:31.370Z,14.30
2024-04-24T05:02:57.961Z,14.20
2024-04-24T05:05:25.030Z,14.10
2024-04-24T05:07:51.755Z,14.13
2024-04-24T05:10:21.340Z,15.40
2024-04-24T05:12:48.026Z,14.37
2024-04-24T05:15:14.849Z,15.00
2024-04-24T05:17:41.459Z,14.13
2024-04-24T05:20:10.723Z,14.17
2024-04-24T05:22:48.163Z,13.83
2024-04-24T05:25:17.827Z,15.47
2024-04-24T05:28:03.598Z,13.33
2024-04-24T05:30:31.006Z,13.17
2024-04-24T05:32:58.140Z,13.17
2024-04-24T05:35:24.748Z,13.17
2024-04-24T05:37:53.091Z,12.33
2024-04-24T05:40:19.738Z,13.27
2024-04-24T05:42:48.094Z,12.60
2024-04-24T05:45:14.668Z,11.40
2024-04-24T05:47:42.659Z,10.93
2024-04-24T05:50:09.452Z,10.20
2024-04-24T05:52:36.130Z,10.60
2024-04-24T05:55:02.698Z,9.57
2024-04-24T05:57:30.860Z,10.17
2024-04-24T05:59:59.005Z,9.37
2024-04-24T06:06:47.744Z,9.40
2024-04-24T06:09:15.387Z,9.43
2024-04-24T06:11:42.149Z,8.50
2024-04-24T07:44:16.648Z,4.67
2024-04-24T07:46:43.926Z,4.30
2024-04-24T07:49:12.376Z,4.33
2024-04-24T07:51:39.343Z,5.03
2024-04-24T10:12:57.426Z,4.20
2024-04-24T10:15:26.881Z,4.20
2024-04-24T10:17:54.789Z,4.60
2024-04-24T10:20:25.905Z,5.23
2024-04-24T11:02:15.242Z,6.23
2024-04-24T11:04:42.328Z,5.73
2024-04-24T11:07:15.557Z,6.00
2024-04-24T11:09:48.478Z,6.80
2024-04-24T11:12:15.204Z,6.20
2024-04-24T11:14:42.753Z,6.20
2024-04-24T11:17:09.787Z,5.77
2024-04-24T11:19:36.620Z,6.00
2024-04-24T11:22:03.189Z,6.07
2024-04-24T11:24:33.594Z,6.30
2024-04-24T11:27:03.780Z,5.90
2024-04-24T11:29:40.366Z,5.53
2024-04-24T11:32:08.724Z,6.03
2024-04-24T11:34:38.565Z,5.40
2024-04-24T11:37:05.357Z,5.37
2024-04-24T11:39:32.120Z,6.23
2024-04-24T11:42:00.064Z,6.43
2024-04-24T11:44:27.121Z,7.00
2024-04-24T11:46:54.475Z,7.10
2024-04-24T11:49:24.754Z,6.80
2024-04-24T11:51:53.516Z,6.93
2024-04-24T11:54:20.455Z,6.77
2024-04-24T11:56:47.160Z,7.20
2024-04-24T11:59:15.758Z,7.80
2024-04-24T12:01:42.811Z,7.17
2024-04-24T12:04:10.007Z,6.73
2024-04-24T12:06:44.407Z,7.60
2024-04-24T12:09:16.331Z,7.50
2024-04-24T12:11:44.778Z,7.80
2024-04-24T12:14:16.135Z,6.90
2024-04-24T12:16:46.195Z,7.37
2024-04-24T12:19:13.548Z,6.83
2024-04-24T12:21:40.415Z,6.77
2024-04-24T12:24:07.820Z,6.27
2024-04-24T12:26:34.520Z,6.20
2024-04-24T12:29:02.939Z,6.80
2024-04-24T12:31:29.526Z,5.83
2024-04-24T12:33:57.354Z,6.27
2024-04-24T12:36:24.407Z,7.33
2024-04-24T12:38:52.615Z,7.30
2024-04-24T12:41:19.908Z,7.23
2024-04-24T12:43:46.643Z,7.33
2024-04-24T12:46:13.303Z,7.10
2024-04-24T12:48:40.805Z,7.17
2024-04-24T12:51:08.753Z,7.17
2024-04-24T12:53:35.325Z,6.83
2024-04-24T12:56:01.926Z,6.30
2024-04-24T12:58:28.520Z,7.27
2024-04-24T13:00:55.185Z,7.87
2024-04-24T13:03:21.908Z,8.50
2024-04-24T13:05:48.504Z,8.37
2024-04-24T13:08:15.058Z,9.63
2024-04-24T13:10:41.810Z,9.20
2024-04-24T13:13:08.571Z,10.03
2024-04-24T13:15:35.143Z,9.10
2024-04-24T13:18:01.875Z,9.63
2024-04-24T13:20:29.626Z,9.60
2024-04-24T13:22:56.606Z,9.30
2024-04-24T13:25:23.314Z,8.10
2024-04-24T13:27:50.298Z,8.50
2024-04-24T13:30:16.929Z,8.10
2024-04-24T13:32:44.679Z,8.83
2024-04-24T13:35:11.870Z,8.20
2024-04-24T13:37:38.577Z,7.77
2024-04-24T13:40:05.615Z,8.97
2024-04-24T13:42:32.151Z,9.20
2024-04-24T13:44:58.765Z,8.53
2024-04-24T13:47:25.426Z,8.30
2024-04-24T13:49:52.762Z,9.20
2024-04-24T13:52:19.328Z,9.20
2024-04-24T13:54:47.106Z,8.03
2024-04-24T13:57:14.855Z,8.23
2024-04-24T13:59:41.453Z,8.73
2024-04-24T14:02:08.362Z,8.13
2024-04-24T14:04:34.997Z,8.00
2024-04-24T14:07:01.636Z,8.03
2024-04-24T14:09:28.242Z,8.07
2024-04-24T14:11:54.948Z,8.53
2024-04-24T14:14:21.651Z,7.77
2024-04-24T14:16:48.387Z,8.30
2024-04-24T14:19:15.039Z,8.43
2024-04-24T14:21:41.579Z,8.33
2024-04-24T14:24:08.462Z,8.00
2024-04-24T14:26:35.050Z,7.70
2024-04-24T14:29:01.789Z,8.20
2024-04-24T14:31:28.440Z,8.20
2024-04-24T14:33:56.775Z,7.50
2024-04-24T14:36:23.348Z,7.40
2024-04-24T14:38:52.455Z,7.20
2024-04-24T14:41:19.273Z,6.90
2024-04-24T14:43:46.174Z,7.00
2024-04-24T14:46:16.147Z,7.00
2024-04-24T14:48:43.857Z,6.20
2024-04-24T14:51:11.285Z,8.17
2024-04-24T14:53:37.918Z,7.20
2024-04-24T14:56:05.247Z,7.80
2024-04-24T14:58:31.786Z,13.17
2024-04-24T15:00:58.362Z,7.37
2024-04-24T15:03:25.062Z,7.13
2024-04-24T15:05:51.632Z,6.87
2024-04-24T15:08:18.342Z,7.97
2024-04-24T15:10:44.969Z,8.10
2024-04-24T15:13:11.530Z,7.70
2024-04-24T15:15:38.217Z,7.33
2024-04-24T15:18:05.389Z,7.73
2024-04-24T15:20:32.206Z,6.83
2024-04-24T15:22:59.061Z,7.37
2024-04-24T15:25:25.706Z,6.90
2024-04-24T15:27:52.219Z,6.40
2024-04-24T15:30:20.554Z,6.90
2024-04-24T15:32:47.313Z,6.27
2024-04-24T15:35:14.122Z,6.20
2024-04-24T15:37:40.736Z,5.70
2024-04-24T15:40:08.047Z,6.37
2024-04-24T15:42:34.682Z,6.33
2024-04-24T15:45:01.391Z,6.57
2024-04-24T15:47:27.985Z,6.20
2024-04-24T15:49:54.554Z,6.20
2024-04-24T15:52:21.071Z,5.10
2024-04-24T15:54:47.678Z,5.90
2024-04-24T15:57:14.235Z,5.90
2024-04-24T15:59:40.888Z,5.83
2024-04-24T16:02:08.847Z,5.63
2024-04-24T16:04:35.430Z,5.00
2024-04-24T16:07:02.057Z,4.57
2024-04-24T16:09:28.816Z,4.60
2024-04-24T16:11:55.446Z,4.70
2024-04-24T16:14:22.002Z,4.77
2024-04-24T16:16:48.691Z,4.57
2024-04-24T16:19:16.756Z,4.10
2024-04-24T16:21:43.444Z,4.10
2024-04-24T16:24:10.556Z,4.30
2024-04-24T16:26:37.126Z,5.13
2024-04-24T16:29:04.279Z,5.33
2024-04-24T16:31:31.017Z,5.80
2024-04-24T16:33:57.611Z,6.20
2024-04-24T16:36:24.232Z,6.73
2024-04-24T16:38:50.859Z,7.43
2024-04-24T16:41:17.987Z,6.20
2024-04-24T16:43:49.426Z,6.53
2024-04-24T16:46:17.542Z,6.90
2024-04-24T16:48:44.354Z,6.77
2024-04-24T16:51:11.010Z,6.13
2024-04-24T16:53:37.564Z,6.63
2024-04-24T16:56:04.372Z,5.70
2024-04-24T16:58:30.957Z,5.93
2024-04-24T17:00:57.538Z,6.93
2024-04-24T17:03:24.188Z,6.47
2024-04-24T17:05:50.729Z,6.60
2024-04-24T17:08:17.308Z,6.63
2024-04-24T17:10:44.003Z,6.10
2024-04-24T17:13:10.632Z,6.90
2024-04-24T17:15:37.291Z,6.67
2024-04-24T17:18:04.248Z,6.70
2024-04-24T17:20:31.059Z,6.33
2024-04-24T17:22:57.662Z,6.37
2024-04-24T17:25:24.293Z,6.10
2024-04-24T17:27:50.899Z,6.80
2024-04-24T17:30:17.550Z,5.90
2024-04-24T17:32:44.246Z,6.30
2024-04-24T17:35:10.844Z,5.83
2024-04-24T17:37:37.441Z,5.40
2024-04-24T17:40:04.473Z,6.07
2024-04-24T17:42:31.002Z,6.00
2024-04-24T17:44:58.541Z,6.53
2024-04-24T17:47:26.093Z,7.13
2024-04-24T17:49:52.805Z,7.80
2024-04-24T17:52:19.422Z,8.07
2024-04-24T17:54:46.108Z,7.30
2024-04-24T17:57:12.630Z,8.27
2024-04-24T17:59:41.072Z,7.00
2024-04-24T18:02:07.808Z,6.77
2024-04-24T18:04:34.391Z,7.60
2024-04-24T18:07:00.935Z,7.20
2024-04-24T18:09:29.785Z,6.30
2024-04-24T18:11:56.395Z,6.00
2024-04-24T18:14:22.969Z,5.43
2024-04-24T18:16:49.565Z,5.60
2024-04-24T18:19:16.110Z,5.80
2024-04-24T18:21:42.637Z,5.23
2024-04-24T18:24:09.220Z,5.57
2024-04-24T18:26:36.864Z,5.13
2024-04-24T18:29:03.498Z,4.87
2024-04-24T18:31:33.120Z,5.43
2024-04-24T18:34:00.415Z,4.77
2024-04-24T18:36:27.346Z,4.80
2024-04-24T18:38:55.607Z,4.20
2024-04-24T18:41:22.344Z,4.13
2024-04-24T18:43:49.553Z,4.70
2024-04-24T18:46:17.227Z,4.40
2024-04-24T18:48:43.936Z,4.60
2024-04-24T18:51:11.323Z,4.10
2024-04-24T18:53:38.099Z,4.00
2024-04-24T18:56:07.029Z,3.50
2024-04-24T18:58:33.588Z,3.10
2024-04-24T19:01:01.698Z,3.07
2024-04-24T19:03:28.844Z,3.03
2024-04-24T19:05:55.648Z,3.00
2024-04-24T19:08:22.807Z,2.83
2024-04-24T19:10:49.736Z,2.63
2024-04-24T19:13:18.291Z,3.20
2024-04-24T19:15:45.382Z,3.20
2024-04-24T19:18:13.142Z,3.20
2024-04-24T19:20:42.129Z,3.00
2024-04-24T19:23:11.838Z,3.50
2024-04-24T19:25:38.433Z,3.30
2024-04-24T19:28:05.529Z,3.37
2024-04-24T19:30:32.070Z,3.63
2024-04-24T19:32:59.344Z,3.60
2024-04-24T19:35:26.199Z,3.90
2024-04-24T19:37:53.192Z,3.27
2024-04-24T19:40:23.587Z,3.90
2024-04-24T19:42:50.602Z,3.60
2024-04-24T19:45:17.243Z,3.30
2024-04-24T19:47:43.859Z,3.70
2024-04-24T19:50:10.441Z,3.40
2024-04-24T19:52:37.064Z,3.50
2024-04-24T19:55:03.830Z,3.57
2024-04-24T19:57:30.418Z,3.30
2024-04-24T19:59:56.961Z,3.47
2024-04-24T20:02:26.143Z,3.40
2024-04-24T20:04:54.716Z,2.83
2024-04-24T20:07:21.250Z,3.33
2024-04-24T20:09:47.997Z,3.30
2024-04-24T20:12:14.583Z,3.80
2024-04-24T20:14:41.224Z,3.73
2024-04-24T20:17:09.667Z,3.50
2024-04-24T20:19:36.268Z,3.83
2024-04-24T20:22:02.806Z,4.13
2024-04-24T20:24:29.338Z,4.67
2024-04-24T20:26:55.883Z,4.10
2024-04-24T20:29:22.555Z,4.20
2024-04-24T20:31:49.146Z,4.30
2024-04-24T20:34:17.449Z,4.13
